createdAt,value
2018-06-14T00:00:31.233Z,91.50
2018-06-14T00:02:59.022Z,91.50
2018-06-14T00:05:26.626Z,91.50
2018-06-14T00:07:54.238Z,91.60
2018-06-14T00:10:21.818Z,91.70
2018-06-14T00:12:49.411Z,91.70
2018-06-14T00:15:17.061Z,91.70
2018-06-14T00:17:44.713Z,91.70
2018-06-14T00:20:12.349Z,91.70
2018-06-14T00:22:39.962Z,91.90
2018-06-14T00:25:08.585Z,91.80
2018-06-14T00:27:36.133Z,91.90
2018-06-14T00:30:03.898Z,91.80
2018-06-14T00:32:31.485Z,91.90
2018-06-14T00:34:59.544Z,91.70
2018-06-14T00:37:27.105Z,91.90
2018-06-14T00:39:54.689Z,91.90
2018-06-14T00:42:22.397Z,91.90
2018-06-14T00:44:49.980Z,91.90
2018-06-14T00:47:17.574Z,91.90
2018-06-14T00:49:45.225Z,91.90
2018-06-14T00:52:12.821Z,91.90
2018-06-14T00:54:40.454Z,91.90
2018-06-14T00:57:19.329Z,92.00
2018-06-14T00:59:46.929Z,92.00
2018-06-14T01:02:14.534Z,92.00
2018-06-14T01:04:42.130Z,92.00
2018-06-14T01:07:09.893Z,92.00
2018-06-14T01:09:37.494Z,91.90
2018-06-14T01:12:05.389Z,92.00
2018-06-14T01:14:33.010Z,92.20
2018-06-14T01:17:00.610Z,92.20
2018-06-14T01:19:28.321Z,92.10
2018-06-14T01:22:10.537Z,92.20
2018-06-14T01:24:38.494Z,92.20
2018-06-14T01:27:08.857Z,92.40
2018-06-14T01:29:36.602Z,92.50
2018-06-14T01:32:05.077Z,92.50
2018-06-14T01:34:32.698Z,92.60
2018-06-14T01:37:00.308Z,92.70
2018-06-14T01:39:27.974Z,92.50
2018-06-14T01:41:55.561Z,92.40
2018-06-14T01:44:23.257Z,92.40
2018-06-14T01:46:50.933Z,92.50
2018-06-14T01:49:18.679Z,92.40
2018-06-14T01:51:47.198Z,92.30
2018-06-14T01:54:14.841Z,92.30
2018-06-14T01:56:42.497Z,92.30
2018-06-14T01:59:10.251Z,92.40
2018-06-14T02:01:38.026Z,92.40
2018-06-14T02:04:05.711Z,92.30
2018-06-14T02:06:33.589Z,92.30
2018-06-14T02:09:02.257Z,92.60
2018-06-14T02:11:29.844Z,92.70
2018-06-14T02:13:57.449Z,92.70
2018-06-14T02:16:25.114Z,93.00
2018-06-14T02:18:52.729Z,92.70
2018-06-14T02:21:20.303Z,92.80
2018-06-14T02:23:47.890Z,92.80
2018-06-14T02:26:15.470Z,92.90
2018-06-14T02:28:43.169Z,92.80
2018-06-14T02:31:10.792Z,92.80
2018-06-14T02:33:38.434Z,92.80
2018-06-14T02:36:06.071Z,92.80
2018-06-14T02:38:33.695Z,92.60
2018-06-14T02:41:01.310Z,92.70
2018-06-14T02:43:28.948Z,92.70
2018-06-14T02:45:56.534Z,92.80
2018-06-14T02:48:24.128Z,92.70
2018-06-14T02:50:51.754Z,92.60
2018-06-14T02:53:19.382Z,92.60
2018-06-14T02:55:47.720Z,92.50
2018-06-14T02:58:15.429Z,92.50
2018-06-14T03:00:43.023Z,92.60
2018-06-14T03:03:10.759Z,92.50
2018-06-14T03:05:38.382Z,92.40
2018-06-14T03:08:06.113Z,92.40
2018-06-14T03:10:33.705Z,92.30
2018-06-14T03:13:01.482Z,92.40
2018-06-14T03:15:29.090Z,92.50
2018-06-14T03:17:56.688Z,92.50
2018-06-14T03:20:24.773Z,92.40
2018-06-14T03:22:52.995Z,92.40
2018-06-14T03:25:20.740Z,92.30
2018-06-14T03:27:48.381Z,92.30
2018-06-14T03:30:16.502Z,92.30
2018-06-14T03:32:44.125Z,92.20
2018-06-14T03:35:11.781Z,92.30
2018-06-14T03:37:39.393Z,92.30
2018-06-14T03:40:07.008Z,92.30
2018-06-14T03:42:39.322Z,92.30
2018-06-14T03:45:06.968Z,92.30
2018-06-14T03:47:34.538Z,92.20
2018-06-14T03:50:02.151Z,92.00
2018-06-14T03:52:29.820Z,91.90
2018-06-14T03:54:57.457Z,92.00
2018-06-14T03:57:25.051Z,92.00
2018-06-14T03:59:52.776Z,91.80
2018-06-14T04:02:20.399Z,91.80
2018-06-14T04:04:48.099Z,91.90
2018-06-14T04:07:15.890Z,91.80
2018-06-14T04:09:43.497Z,91.90
2018-06-14T04:12:11.080Z,92.00
2018-06-14T04:14:38.674Z,91.90
2018-06-14T04:17:06.277Z,92.00
2018-06-14T04:19:33.861Z,92.00
2018-06-14T04:22:01.447Z,92.00
2018-06-14T04:24:29.078Z,91.90
2018-06-14T04:26:56.742Z,92.00
2018-06-14T04:29:24.330Z,92.10
2018-06-14T04:31:51.989Z,92.10
2018-06-14T04:34:19.610Z,92.10
2018-06-14T04:36:47.181Z,92.10
2018-06-14T04:39:14.776Z,92.10
2018-06-14T04:41:42.321Z,91.80
2018-06-14T04:44:12.981Z,91.70
2018-06-14T04:46:40.605Z,91.80
2018-06-14T04:49:08.233Z,91.70
2018-06-14T04:51:43.057Z,91.80
2018-06-14T04:54:10.629Z,91.90
2018-06-14T04:56:38.259Z,91.70
2018-06-14T04:59:05.849Z,91.60
2018-06-14T05:01:33.431Z,91.70
2018-06-14T05:04:01.029Z,91.60
2018-06-14T05:06:28.598Z,91.40
2018-06-14T05:08:56.181Z,91.50
2018-06-14T05:11:23.700Z,91.40
2018-06-14T05:13:51.262Z,91.30
2018-06-14T05:16:18.785Z,91.10
2018-06-14T05:18:46.409Z,91.20
2018-06-14T05:21:13.925Z,91.20
2018-06-14T05:23:41.455Z,90.80
2018-06-14T05:26:09.030Z,90.60
2018-06-14T05:28:36.582Z,90.50
2018-06-14T05:31:04.166Z,90.50
2018-06-14T05:33:31.694Z,90.80
2018-06-14T05:35:59.285Z,90.70
2018-06-14T05:38:26.807Z,90.90
2018-06-14T05:40:54.364Z,90.70
2018-06-14T05:43:22.010Z,90.90
2018-06-14T05:45:49.569Z,90.70
2018-06-14T05:50:52.184Z,90.30
2018-06-14T05:53:20.333Z,90.00
2018-06-14T05:55:48.049Z,90.00
2018-06-14T06:00:43.625Z,89.00
2018-06-14T06:03:11.244Z,88.70
2018-06-14T06:05:38.901Z,88.30
2018-06-14T06:08:06.465Z,88.10
2018-06-14T06:10:34.013Z,87.40
2018-06-14T06:13:02.087Z,87.20
2018-06-14T06:15:29.805Z,87.10
2018-06-14T06:17:57.330Z,87.80
2018-06-14T06:20:24.873Z,87.70
2018-06-14T06:22:52.398Z,87.60
2018-06-14T06:25:20.005Z,86.60
2018-06-14T06:27:47.573Z,87.30
2018-06-14T06:30:15.137Z,87.50
2018-06-14T06:32:42.641Z,87.50
2018-06-14T06:35:10.436Z,88.80
2018-06-14T06:37:37.964Z,87.90
2018-06-14T06:40:05.629Z,87.90
2018-06-14T06:42:33.173Z,87.40
2018-06-14T06:45:00.770Z,85.60
2018-06-14T06:47:28.365Z,85.20
2018-06-14T06:49:55.917Z,84.20
2018-06-14T06:52:23.525Z,85.30
2018-06-14T06:54:51.150Z,83.80
2018-06-14T06:57:18.865Z,83.20
2018-06-14T06:59:46.535Z,81.20
2018-06-14T07:02:14.089Z,81.80
2018-06-14T07:04:41.627Z,80.70
2018-06-14T07:07:09.569Z,79.50
2018-06-14T07:09:37.242Z,79.20
2018-06-14T07:12:05.011Z,78.20
2018-06-14T07:14:32.532Z,77.80
2018-06-14T07:17:00.133Z,77.60
2018-06-14T07:19:28.286Z,78.00
2018-06-14T07:21:55.889Z,77.40
2018-06-14T07:24:23.652Z,75.20
2018-06-14T07:26:51.205Z,75.70
2018-06-14T07:29:18.800Z,75.30
2018-06-14T07:31:46.484Z,76.20
2018-06-14T07:34:14.676Z,76.90
2018-06-14T07:36:42.634Z,76.00
2018-06-14T07:39:11.850Z,76.20
2018-06-14T07:41:39.473Z,74.30
2018-06-14T07:44:07.025Z,74.20
2018-06-14T07:46:34.800Z,74.80
2018-06-14T07:49:02.727Z,75.50
2018-06-14T07:51:31.074Z,72.10
2018-06-14T07:53:58.642Z,72.30
2018-06-14T07:56:26.398Z,71.20
2018-06-14T07:58:54.064Z,68.70
2018-06-14T08:01:21.634Z,67.40
2018-06-14T08:03:49.198Z,68.30
2018-06-14T08:06:16.777Z,63.80
2018-06-14T08:08:44.342Z,65.00
2018-06-14T08:11:11.962Z,65.10
2018-06-14T08:13:41.668Z,63.30
2018-06-14T08:16:09.225Z,62.40
2018-06-14T08:18:36.818Z,63.40
2018-06-14T08:21:04.402Z,62.20
2018-06-14T08:23:32.092Z,59.90
2018-06-14T08:25:59.821Z,60.60
2018-06-14T08:28:27.666Z,60.50
2018-06-14T08:30:55.338Z,59.70
2018-06-14T08:33:22.929Z,61.30
2018-06-14T08:35:50.451Z,62.20
2018-06-14T08:38:18.066Z,63.40
2018-06-14T08:40:45.586Z,62.50
2018-06-14T08:43:13.177Z,59.90
2018-06-14T08:45:40.721Z,60.70
2018-06-14T08:48:08.364Z,60.40
2018-06-14T08:50:35.890Z,61.00
2018-06-14T08:53:03.560Z,62.40
2018-06-14T08:55:31.149Z,61.50
2018-06-14T08:57:58.693Z,61.30
2018-06-14T09:00:26.222Z,60.40
2018-06-14T09:02:53.945Z,61.40
2018-06-14T09:05:21.509Z,62.30
2018-06-14T09:07:49.093Z,62.30
2018-06-14T09:10:16.614Z,62.60
2018-06-14T09:12:45.068Z,62.50
2018-06-14T09:15:12.715Z,61.70
2018-06-14T09:17:40.301Z,60.30
2018-06-14T09:20:07.977Z,60.50
2018-06-14T09:22:35.557Z,59.20
2018-06-14T09:25:03.121Z,60.20
2018-06-14T09:27:30.707Z,59.70
2018-06-14T09:29:58.290Z,59.90
2018-06-14T09:32:25.824Z,60.60
2018-06-14T09:34:53.366Z,59.40
2018-06-14T09:37:21.043Z,58.40
2018-06-14T09:39:48.607Z,59.10
2018-06-14T09:42:16.245Z,57.60
2018-06-14T09:44:44.720Z,60.00
2018-06-14T09:47:12.285Z,57.70
2018-06-14T09:49:39.821Z,56.40
2018-06-14T09:54:35.062Z,57.20
2018-06-14T09:57:02.630Z,57.80
2018-06-14T09:59:30.349Z,57.80
2018-06-14T10:01:57.936Z,56.10
2018-06-14T10:04:26.238Z,57.30
2018-06-14T10:06:53.786Z,58.60
2018-06-14T10:09:21.382Z,55.70
2018-06-14T10:11:48.950Z,56.60
2018-06-14T10:14:16.909Z,56.10
2018-06-14T10:16:44.778Z,55.30
2018-06-14T10:19:12.357Z,55.40
2018-06-14T10:24:07.465Z,59.40
2018-06-14T10:26:35.007Z,58.80
2018-06-14T10:29:02.570Z,57.10
2018-06-14T10:31:30.165Z,56.60
2018-06-14T10:33:57.769Z,55.80
2018-06-14T10:36:25.360Z,56.10
2018-06-14T10:38:52.969Z,56.50
2018-06-14T10:41:20.556Z,56.10
2018-06-14T10:43:48.161Z,56.30
2018-06-14T10:46:16.833Z,55.10
2018-06-14T10:48:44.584Z,55.30
2018-06-14T10:51:12.182Z,53.50
2018-06-14T10:53:39.894Z,53.70
2018-06-14T10:56:07.514Z,53.50
2018-06-14T10:58:35.206Z,54.30
2018-06-14T11:01:02.788Z,55.20
2018-06-14T11:03:30.376Z,52.20
2018-06-14T11:05:57.959Z,51.30
2018-06-14T11:08:25.555Z,51.50
2018-06-14T11:10:53.584Z,48.80
2018-06-14T11:13:21.170Z,48.70
2018-06-14T11:15:48.741Z,50.20
2018-06-14T11:18:16.318Z,52.10
2018-06-14T11:20:44.042Z,50.70
2018-06-14T11:23:11.881Z,49.40
2018-06-14T11:25:40.408Z,50.70
2018-06-14T11:28:08.074Z,49.60
2018-06-14T11:30:36.798Z,50.20
2018-06-14T11:33:05.273Z,51.00
2018-06-14T11:35:32.893Z,50.10
2018-06-14T11:38:00.491Z,51.00
2018-06-14T11:40:28.106Z,50.60
2018-06-14T11:42:55.757Z,49.50
2018-06-14T11:45:23.381Z,51.20
2018-06-14T11:47:51.188Z,50.40
2018-06-14T11:50:18.822Z,51.50
2018-06-14T11:52:46.371Z,48.10
2018-06-14T11:55:14.776Z,50.10
2018-06-14T11:57:43.434Z,47.00
2018-06-14T12:00:11.174Z,47.70
2018-06-14T12:02:38.871Z,49.50
2018-06-14T12:05:06.474Z,47.80
2018-06-14T12:07:34.052Z,49.10
2018-06-14T12:10:01.731Z,47.50
2018-06-14T12:12:29.419Z,46.70
2018-06-14T12:14:57.117Z,48.30
2018-06-14T12:17:24.684Z,47.00
2018-06-14T12:19:52.297Z,47.60
2018-06-14T12:22:19.961Z,48.80
2018-06-14T12:24:47.541Z,47.80
2018-06-14T12:27:15.193Z,48.40
2018-06-14T12:29:43.138Z,48.30
2018-06-14T12:32:10.697Z,47.40
2018-06-14T12:34:38.402Z,48.30
2018-06-14T12:37:05.952Z,46.60
2018-06-14T12:39:33.541Z,47.90
2018-06-14T12:42:01.127Z,48.30
2018-06-14T12:44:28.775Z,48.50
2018-06-14T12:46:57.190Z,47.70
2018-06-14T12:49:25.978Z,47.00
2018-06-14T12:51:53.545Z,48.50
2018-06-14T12:54:21.129Z,48.80
2018-06-14T12:56:48.702Z,46.60
2018-06-14T12:59:16.265Z,47.70
2018-06-14T13:01:43.859Z,46.90
2018-06-14T13:04:11.614Z,46.40
2018-06-14T13:06:39.853Z,45.20
2018-06-14T13:09:08.902Z,45.50
2018-06-14T13:11:36.501Z,44.70
2018-06-14T13:14:04.134Z,45.50
2018-06-14T13:16:31.744Z,46.30
2018-06-14T13:18:59.333Z,46.40
2018-06-14T13:21:27.610Z,47.20
2018-06-14T13:23:55.218Z,47.40
2018-06-14T13:26:22.802Z,47.60
2018-06-14T13:28:50.374Z,49.00
2018-06-14T13:31:17.991Z,49.70
2018-06-14T13:33:45.689Z,48.20
2018-06-14T13:36:13.258Z,49.10
2018-06-14T13:38:40.953Z,49.70
2018-06-14T13:41:08.753Z,49.00
2018-06-14T13:43:36.322Z,50.30
2018-06-14T13:46:03.929Z,48.70
2018-06-14T13:48:31.484Z,49.90
2018-06-14T13:51:00.633Z,49.20
2018-06-14T13:53:28.278Z,49.40
2018-06-14T13:55:57.602Z,48.60
2018-06-14T13:58:25.188Z,49.50
2018-06-14T14:00:52.798Z,49.20
2018-06-14T14:03:20.404Z,48.70
2018-06-14T14:05:47.985Z,49.80
2018-06-14T14:08:15.549Z,48.90
2018-06-14T14:10:43.349Z,48.60
2018-06-14T14:13:11.885Z,49.60
2018-06-14T14:15:39.484Z,48.80
2018-06-14T14:18:07.053Z,50.10
2018-06-14T14:20:34.627Z,48.90
2018-06-14T14:23:02.177Z,50.00
2018-06-14T14:25:29.770Z,51.50
2018-06-14T14:27:57.971Z,49.90
2018-06-14T14:30:25.557Z,51.00
2018-06-14T14:32:53.134Z,49.70
2018-06-14T14:35:20.734Z,51.00
2018-06-14T14:37:48.311Z,50.20
2018-06-14T14:40:15.988Z,51.70
2018-06-14T14:42:43.662Z,51.20
2018-06-14T14:45:11.807Z,52.60
2018-06-14T14:47:39.610Z,53.00
2018-06-14T14:50:08.079Z,52.90
2018-06-14T14:52:35.656Z,52.60
2018-06-14T14:55:03.280Z,53.80
2018-06-14T14:57:30.894Z,52.90
2018-06-14T14:59:58.561Z,54.20
2018-06-14T15:02:26.206Z,54.70
2018-06-14T15:04:53.826Z,55.90
2018-06-14T15:07:21.487Z,56.30
2018-06-14T15:09:49.038Z,60.00
2018-06-14T15:12:18.597Z,62.90
2018-06-14T15:14:49.177Z,61.70
2018-06-14T15:17:17.069Z,63.80
2018-06-14T15:19:44.675Z,67.10
2018-06-14T15:22:12.256Z,71.50
2018-06-14T15:24:39.802Z,68.90
2018-06-14T15:27:07.393Z,70.60
2018-06-14T15:29:36.038Z,68.90
2018-06-14T15:32:03.785Z,73.10
2018-06-14T15:34:31.385Z,73.00
2018-06-14T15:36:59.016Z,74.90
2018-06-14T15:39:26.569Z,77.90
2018-06-14T15:41:54.313Z,77.60
2018-06-14T15:44:21.873Z,78.10
2018-06-14T15:46:49.449Z,82.10
2018-06-14T15:49:17.059Z,84.90
2018-06-14T15:51:44.694Z,84.60
2018-06-14T15:54:13.186Z,83.80
2018-06-14T15:56:41.641Z,85.50
2018-06-14T15:59:10.627Z,85.90
2018-06-14T16:01:38.382Z,88.60
2018-06-14T16:04:06.559Z,91.20
2018-06-14T16:06:34.270Z,89.60
2018-06-14T16:09:01.885Z,90.50
2018-06-14T16:11:29.864Z,90.40
2018-06-14T16:13:57.535Z,92.00
2018-06-14T16:16:25.421Z,91.80
2018-06-14T16:18:53.217Z,91.50
2018-06-14T16:21:20.857Z,91.00
2018-06-14T16:23:48.625Z,91.20
2018-06-14T16:26:16.218Z,92.10
2018-06-14T16:28:43.979Z,90.00
2018-06-14T16:31:13.482Z,90.60
2018-06-14T16:33:47.951Z,92.70
2018-06-14T16:36:15.637Z,91.20
2018-06-14T16:38:43.196Z,90.80
2018-06-14T16:41:10.748Z,90.90
2018-06-14T16:43:38.365Z,92.20
2018-06-14T16:46:07.901Z,91.40
2018-06-14T16:48:35.480Z,91.90
2018-06-14T16:51:03.067Z,92.30
2018-06-14T16:53:30.917Z,92.90
2018-06-14T16:55:58.667Z,93.30
2018-06-14T16:58:26.362Z,94.10
2018-06-14T17:00:53.960Z,94.20
2018-06-14T17:03:21.586Z,93.40
2018-06-14T17:05:49.395Z,93.00
2018-06-14T17:08:16.975Z,93.40
2018-06-14T17:10:44.556Z,93.00
2018-06-14T17:13:12.097Z,94.10
2018-06-14T17:15:39.806Z,94.60
2018-06-14T17:18:07.438Z,95.10
2018-06-14T17:20:37.053Z,94.20
2018-06-14T17:23:04.501Z,93.70
2018-06-14T17:25:32.093Z,93.60
2018-06-14T17:27:59.696Z,94.10
2018-06-14T17:30:27.260Z,94.00
2018-06-14T17:32:54.837Z,93.70
2018-06-14T17:35:25.256Z,94.90
2018-06-14T17:37:52.953Z,94.10
2018-06-14T17:40:20.533Z,94.90
2018-06-14T17:42:48.202Z,95.10
2018-06-14T17:45:15.781Z,95.40
2018-06-14T17:47:43.405Z,95.70
2018-06-14T17:50:10.998Z,95.80
2018-06-14T17:52:38.615Z,95.70
2018-06-14T17:55:06.260Z,96.00
2018-06-14T17:57:33.890Z,95.90
2018-06-14T18:00:01.474Z,96.20
2018-06-14T18:02:29.067Z,95.80
2018-06-14T18:04:56.697Z,96.00
2018-06-14T18:07:24.377Z,96.30
2018-06-14T18:09:52.570Z,96.50
2018-06-14T18:12:20.128Z,96.20
2018-06-14T18:14:47.764Z,96.50
2018-06-14T18:17:15.486Z,96.80
2018-06-14T18:19:43.058Z,96.30
2018-06-14T18:22:10.686Z,96.30
2018-06-14T18:24:38.273Z,96.20
2018-06-14T18:27:05.870Z,96.20
2018-06-14T18:29:33.557Z,96.70
2018-06-14T18:32:01.454Z,96.00
2018-06-14T18:34:29.038Z,95.70
2018-06-14T18:36:56.623Z,96.10
2018-06-14T18:39:24.317Z,96.20
2018-06-14T18:41:51.996Z,96.00
2018-06-14T18:44:20.527Z,96.30
2018-06-14T18:46:48.226Z,96.20
2018-06-14T18:49:15.914Z,96.30
2018-06-14T18:51:43.538Z,96.40
2018-06-14T18:54:11.124Z,96.40
2018-06-14T18:56:38.736Z,96.70
2018-06-14T18:59:06.608Z,95.90
2018-06-14T19:01:34.349Z,95.80
2018-06-14T19:04:01.898Z,95.90
2018-06-14T19:06:29.498Z,95.90
2018-06-14T19:08:57.968Z,95.80
2018-06-14T19:11:25.580Z,95.80
2018-06-14T19:13:53.153Z,95.70
2018-06-14T19:16:21.185Z,95.70
2018-06-14T19:18:48.949Z,96.00
2018-06-14T19:21:16.536Z,95.60
2018-06-14T19:23:44.129Z,95.60
2018-06-14T19:26:13.696Z,95.50
2018-06-14T19:28:41.225Z,96.00
2018-06-14T19:31:08.825Z,96.20
2018-06-14T19:33:36.409Z,96.30
2018-06-14T19:36:04.227Z,97.20
2018-06-14T19:38:31.769Z,96.40
2018-06-14T19:40:59.501Z,96.40
2018-06-14T19:43:27.109Z,96.80
2018-06-14T19:45:54.745Z,96.60
2018-06-14T19:48:22.313Z,97.00
2018-06-14T19:50:49.917Z,97.10
2018-06-14T19:53:18.570Z,97.20
2018-06-14T19:55:46.161Z,96.70
2018-06-14T19:58:13.720Z,96.80
2018-06-14T20:00:41.374Z,97.00
2018-06-14T20:03:08.961Z,96.90
2018-06-14T20:05:36.565Z,97.10
2018-06-14T20:08:04.233Z,97.30
2018-06-14T20:10:31.909Z,96.90
2018-06-14T20:12:59.591Z,97.10
2018-06-14T20:15:27.206Z,97.10
2018-06-14T20:17:54.770Z,97.00
2018-06-14T20:20:24.574Z,97.50
2018-06-14T20:22:52.788Z,97.80
2018-06-14T20:25:20.852Z,97.00
2018-06-14T20:27:48.562Z,96.90
2018-06-14T20:30:16.208Z,97.20
2018-06-14T20:32:44.249Z,97.00
2018-06-14T20:35:11.977Z,97.30
2018-06-14T20:37:41.344Z,97.90
2018-06-14T20:40:09.032Z,97.70
2018-06-14T20:42:37.091Z,98.10
2018-06-14T20:45:04.757Z,97.80
2018-06-14T20:47:32.342Z,98.10
2018-06-14T20:50:00.014Z,97.80
2018-06-14T20:52:27.724Z,97.10
2018-06-14T20:54:55.310Z,96.90
2018-06-14T20:57:23.013Z,96.70
2018-06-14T20:59:50.625Z,96.70
2018-06-14T21:02:18.289Z,96.60
2018-06-14T21:04:45.872Z,97.30
2018-06-14T21:07:13.525Z,97.30
2018-06-14T21:09:41.102Z,96.70
2018-06-14T21:12:08.761Z,96.30
2018-06-14T21:14:36.364Z,96.90
2018-06-14T21:17:03.951Z,96.80
2018-06-14T21:19:32.442Z,96.20
2018-06-14T21:22:00.085Z,96.60
2018-06-14T21:24:27.650Z,96.40
2018-06-14T21:26:55.221Z,96.40
2018-06-14T21:29:22.786Z,95.90
2018-06-14T21:31:50.384Z,95.80
2018-06-14T21:34:17.957Z,95.90
2018-06-14T21:36:45.852Z,95.60
2018-06-14T21:39:13.383Z,95.90
2018-06-14T21:41:41.089Z,95.90
2018-06-14T21:44:08.617Z,95.80
2018-06-14T21:46:36.169Z,95.60
2018-06-14T21:49:04.529Z,96.30
2018-06-14T21:51:32.350Z,96.00
2018-06-14T21:54:00.050Z,96.00
2018-06-14T21:56:28.881Z,96.40
2018-06-14T21:58:56.426Z,96.10
2018-06-14T22:01:24.009Z,95.90
2018-06-14T22:03:55.564Z,95.60
2018-06-14T22:06:23.206Z,96.20
2018-06-14T22:08:54.601Z,96.10
2018-06-14T22:11:22.133Z,96.40
2018-06-14T22:13:49.744Z,96.60
2018-06-14T22:16:17.270Z,95.80
2018-06-14T22:18:44.840Z,96.40
2018-06-14T22:21:12.365Z,96.70
2018-06-14T22:23:39.977Z,95.50
2018-06-14T22:26:07.517Z,96.40
2018-06-14T22:28:35.149Z,96.80
2018-06-14T22:31:09.581Z,96.00
2018-06-14T22:35:45.817Z,95.80
2018-06-14T22:38:13.436Z,95.80
2018-06-14T22:40:41.861Z,95.90
2018-06-14T22:43:09.397Z,95.90
2018-06-14T22:45:36.921Z,96.20
2018-06-14T22:48:04.673Z,96.20
2018-06-14T22:51:49.896Z,95.90
2018-06-14T22:54:17.689Z,96.10
2018-06-14T22:56:45.745Z,97.00
2018-06-14T22:59:13.293Z,96.50
2018-06-14T23:01:41.922Z,96.30
2018-06-14T23:04:11.805Z,96.20
2018-06-14T23:06:39.357Z,96.10
2018-06-14T23:11:19.558Z,96.40
2018-06-14T23:13:47.118Z,96.10
2018-06-14T23:16:14.813Z,96.40
2018-06-14T23:18:42.365Z,95.80
2018-06-14T23:21:12.897Z,96.00
2018-06-14T23:23:40.561Z,96.10
2018-06-14T23:26:08.114Z,96.20
2018-06-14T23:28:35.646Z,96.50
2018-06-14T23:31:03.241Z,96.40
2018-06-14T23:33:30.812Z,96.30
2018-06-14T23:35:58.325Z,96.10
2018-06-14T23:38:25.853Z,96.50
2018-06-14T23:40:53.395Z,96.30
2018-06-14T23:43:21.773Z,96.30
2018-06-14T23:45:49.363Z,97.40
2018-06-14T23:48:16.897Z,96.60
2018-06-14T23:50:44.557Z,96.50
2018-06-14T23:53:12.172Z,96.70
2018-06-14T23:55:39.773Z,96.90
2018-06-14T23:58:07.590Z,96.60
